createdAt,value
2019-04-10T00:01:22.337Z,44.60
2019-04-10T00:03:51.598Z,44.37
2019-04-10T00:06:21.668Z,41.27
2019-04-10T00:08:54.706Z,37.70
2019-04-10T00:11:34.615Z,47.00
2019-04-10T00:14:10.281Z,39.87
2019-04-10T00:16:40.570Z,44.07
2019-04-10T00:19:13.132Z,40.43
2019-04-10T00:21:47.312Z,41.17
2019-04-10T00:24:18.223Z,46.60
2019-04-10T00:26:48.029Z,48.47
2019-04-10T00:29:20.358Z,40.93
2019-04-10T00:31:56.371Z,47.40
2019-04-10T00:34:29.606Z,41.80
2019-04-10T00:37:03.847Z,36.27
2019-04-10T00:39:32.924Z,49.87
2019-04-10T00:42:05.080Z,52.07
2019-04-10T00:44:38.338Z,46.37
2019-04-10T00:47:10.828Z,42.87
2019-04-10T00:49:40.285Z,45.63
2019-04-10T00:52:14.264Z,46.37
2019-04-10T00:54:44.609Z,43.80
2019-04-10T00:57:15.077Z,44.80
2019-04-10T00:59:44.236Z,51.60
2019-04-10T01:02:13.291Z,45.60
2019-04-10T01:04:42.827Z,42.17
2019-04-10T01:07:12.747Z,48.63
2019-04-10T01:09:43.763Z,47.80
2019-04-10T01:12:17.828Z,43.67
2019-04-10T01:14:48.545Z,49.80
2019-04-10T01:17:20.622Z,47.00
2019-04-10T01:19:50.281Z,41.70
2019-04-10T01:22:23.909Z,44.67
2019-04-10T01:24:54.347Z,48.50
2019-04-10T01:27:28.520Z,42.03
2019-04-10T01:30:04.219Z,53.37
2019-04-10T01:32:39.766Z,41.03
2019-04-10T01:35:09.921Z,53.43
2019-04-10T01:37:50.272Z,48.17
2019-04-10T01:40:12.952Z,48.47
2019-04-10T01:43:00.443Z,48.70
2019-04-10T01:45:17.531Z,51.17
2019-04-10T01:47:47.614Z,55.40
2019-04-10T01:50:17.948Z,51.10
2019-04-10T01:52:47.728Z,53.83
2019-04-10T01:55:25.289Z,57.33
2019-04-10T01:57:54.703Z,56.20
2019-04-10T02:00:24.485Z,59.00
2019-04-10T02:02:56.688Z,85.60
2019-04-10T02:05:33.227Z,88.63
2019-04-10T02:08:09.075Z,72.07
2019-04-10T02:10:43.068Z,73.13
2019-04-10T02:13:12.164Z,76.00
2019-04-10T02:15:43.982Z,74.53
2019-04-10T02:18:15.944Z,63.83
2019-04-10T02:20:47.735Z,65.40
2019-04-10T02:23:20.692Z,74.77
2019-04-10T02:25:53.459Z,80.57
2019-04-10T02:28:22.776Z,72.40
2019-04-10T02:30:52.101Z,75.60
2019-04-10T02:33:21.269Z,89.40
2019-04-10T02:35:50.571Z,73.97
2019-04-10T02:38:36.288Z,85.90
2019-04-10T02:40:53.364Z,76.20
2019-04-10T02:43:23.299Z,89.83
2019-04-10T02:45:53.068Z,89.10
2019-04-10T02:48:23.467Z,96.40
2019-04-10T02:50:55.543Z,91.07
2019-04-10T02:53:29.603Z,99.80
2019-04-10T02:56:00.181Z,81.13
2019-04-10T02:58:32.431Z,85.33
2019-04-10T03:01:03.178Z,85.33
2019-04-10T03:03:34.225Z,96.87
2019-04-10T03:06:09.228Z,82.43
2019-04-10T03:09:02.209Z,93.60
2019-04-10T03:11:31.206Z,92.93
2019-04-10T03:14:04.622Z,82.03
2019-04-10T03:16:33.754Z,87.43
2019-04-10T03:19:05.391Z,95.63
2019-04-10T03:21:33.663Z,88.97
2019-04-10T03:24:06.261Z,82.57
2019-04-10T03:26:35.296Z,91.10
2019-04-10T03:29:05.334Z,83.30
2019-04-10T03:31:34.654Z,93.00
2019-04-10T03:34:28.209Z,88.87
2019-04-10T03:36:58.065Z,79.37
2019-04-10T03:39:27.786Z,87.80
2019-04-10T03:42:00.909Z,93.30
2019-04-10T03:44:30.484Z,87.37
2019-04-10T03:47:00.796Z,81.47
2019-04-10T03:49:29.914Z,93.37
2019-04-10T03:51:58.970Z,96.80
2019-04-10T03:54:30.218Z,92.00
2019-04-10T03:57:02.495Z,85.23
2019-04-10T03:59:32.679Z,91.97
2019-04-10T04:02:03.213Z,85.37
2019-04-10T04:04:43.941Z,90.07
2019-04-10T04:07:14.099Z,96.03
2019-04-10T04:09:43.997Z,90.77
2019-04-10T04:12:14.754Z,88.60
2019-04-10T04:14:48.465Z,89.17
2019-04-10T04:17:20.068Z,85.10
2019-04-10T04:19:52.637Z,94.23
2019-04-10T04:22:25.009Z,100.73
2019-04-10T04:24:58.186Z,99.47
2019-04-10T04:27:27.720Z,96.10
2019-04-10T04:29:58.154Z,86.30
2019-04-10T04:32:27.352Z,92.60
2019-04-10T04:34:59.832Z,84.30
2019-04-10T04:37:30.100Z,89.63
2019-04-10T04:40:02.961Z,95.03
2019-04-10T04:42:33.293Z,78.07
2019-04-10T04:45:07.095Z,89.57
2019-04-10T04:47:39.769Z,82.67
2019-04-10T04:50:09.764Z,90.50
2019-04-10T04:52:42.111Z,76.10
2019-04-10T04:55:12.230Z,91.33
2019-04-10T04:57:42.319Z,78.90
2019-04-10T05:00:13.204Z,81.40
2019-04-10T05:02:42.669Z,81.80
2019-04-10T05:05:12.103Z,80.97
2019-04-10T05:07:54.772Z,88.47
2019-04-10T05:10:18.514Z,77.27
2019-04-10T05:12:47.638Z,71.40
2019-04-10T05:15:17.102Z,87.70
2019-04-10T05:17:47.126Z,83.47
2019-04-10T05:20:19.041Z,77.80
2019-04-10T05:22:49.190Z,78.23
2019-04-10T05:25:22.586Z,83.83
2019-04-10T05:27:55.940Z,77.83
2019-04-10T05:30:25.119Z,79.07
2019-04-10T05:32:55.702Z,84.27
2019-04-10T05:35:25.707Z,86.27
2019-04-10T05:37:56.099Z,85.73
2019-04-10T05:40:26.054Z,76.10
2019-04-10T05:42:55.561Z,73.47
2019-04-10T05:45:27.564Z,77.37
2019-04-10T05:48:01.255Z,72.63
2019-04-10T05:50:35.725Z,67.70
2019-04-10T05:53:07.702Z,79.87
2019-04-10T05:55:42.006Z,75.57
2019-04-10T05:58:13.364Z,76.57
2019-04-10T06:00:43.172Z,74.57
2019-04-10T06:03:12.773Z,69.70
2019-04-10T06:05:42.439Z,75.70
2019-04-10T06:08:16.106Z,76.90
2019-04-10T06:10:48.013Z,71.73
2019-04-10T06:13:22.921Z,68.43
2019-04-10T06:15:57.347Z,73.60
2019-04-10T06:18:27.150Z,73.80
2019-04-10T06:20:56.671Z,74.70
2019-04-10T06:23:25.980Z,64.70
2019-04-10T06:25:56.309Z,64.33
2019-04-10T06:28:27.940Z,77.40
2019-04-10T06:30:59.112Z,74.10
2019-04-10T06:33:35.998Z,72.93
2019-04-10T06:36:00.814Z,67.07
2019-04-10T06:38:31.751Z,66.93
2019-04-10T06:41:02.181Z,78.70
2019-04-10T06:43:33.578Z,70.57
2019-04-10T06:46:08.361Z,65.93
2019-04-10T06:48:48.655Z,64.77
2019-04-10T06:51:19.797Z,62.43
2019-04-10T06:54:02.567Z,74.50
2019-04-10T06:56:48.753Z,64.10
2019-04-10T06:59:21.234Z,69.07
2019-04-10T07:01:54.518Z,68.00
2019-04-10T07:04:28.767Z,62.40
2019-04-10T07:07:04.494Z,61.60
2019-04-10T07:09:27.621Z,60.20
2019-04-10T07:12:00.975Z,65.00
2019-04-10T07:14:33.020Z,61.17
2019-04-10T07:17:07.118Z,71.33
2019-04-10T07:19:41.413Z,60.00
2019-04-10T07:22:20.735Z,69.27
2019-04-10T07:24:51.832Z,61.90
2019-04-10T07:27:21.841Z,72.70
2019-04-10T07:29:55.119Z,66.30
2019-04-10T07:32:24.241Z,68.73
2019-04-10T07:34:58.247Z,54.33
2019-04-10T07:37:25.982Z,64.83
2019-04-10T07:39:59.733Z,66.03
2019-04-10T07:42:38.036Z,66.67
2019-04-10T07:45:04.459Z,72.40
2019-04-10T07:47:33.525Z,59.40
2019-04-10T07:50:04.580Z,62.00
2019-04-10T07:52:34.989Z,60.60
2019-04-10T07:55:08.605Z,57.50
2019-04-10T07:57:38.485Z,57.80
2019-04-10T08:00:11.185Z,58.83
2019-04-10T08:02:40.890Z,67.53
2019-04-10T08:05:12.264Z,53.90
2019-04-10T08:07:45.120Z,54.33
2019-04-10T08:10:14.320Z,59.87
2019-04-10T08:12:50.421Z,62.53
2019-04-10T08:15:23.202Z,59.90
2019-04-10T08:17:52.627Z,61.93
2019-04-10T08:20:24.021Z,58.17
2019-04-10T08:22:59.446Z,53.70
2019-04-10T08:25:29.135Z,65.87
2019-04-10T08:28:02.763Z,61.23
2019-04-10T08:30:32.805Z,54.90
2019-04-10T08:33:04.433Z,55.47
2019-04-10T08:35:37.913Z,58.60
2019-04-10T08:38:07.674Z,55.57
2019-04-10T08:40:38.264Z,64.97
2019-04-10T08:43:09.749Z,53.60
2019-04-10T08:45:46.657Z,64.70
2019-04-10T08:48:15.909Z,56.77
2019-04-10T08:50:47.989Z,55.50
2019-04-10T08:53:20.127Z,56.17
2019-04-10T08:55:50.416Z,60.80
2019-04-10T08:58:20.927Z,53.50
2019-04-10T09:00:52.365Z,52.83
2019-04-10T09:03:24.613Z,56.70
2019-04-10T09:05:55.282Z,54.00
2019-04-10T09:08:26.696Z,57.13
2019-04-10T09:10:56.066Z,59.37
2019-04-10T09:13:26.871Z,51.57
2019-04-10T09:15:58.398Z,57.63
2019-04-10T09:18:29.510Z,51.13
2019-04-10T09:21:05.005Z,56.07
2019-04-10T09:23:44.403Z,62.27
2019-04-10T09:26:08.045Z,65.10
2019-04-10T09:28:42.243Z,58.80
2019-04-10T09:31:16.191Z,54.07
2019-04-10T09:33:45.414Z,57.47
2019-04-10T09:36:15.344Z,60.03
2019-04-10T09:38:45.541Z,62.83
2019-04-10T09:41:17.477Z,59.23
2019-04-10T09:43:47.626Z,55.63
2019-04-10T09:46:20.438Z,58.60
2019-04-10T09:48:52.010Z,55.40
2019-04-10T09:51:23.586Z,54.27
2019-04-10T09:53:54.538Z,54.90
2019-04-10T09:56:30.528Z,52.07
2019-04-10T09:59:05.300Z,51.30
2019-04-10T10:01:37.954Z,54.93
2019-04-10T10:04:07.168Z,49.30
2019-04-10T10:06:39.614Z,51.90
2019-04-10T10:09:17.751Z,65.50
2019-04-10T10:11:47.354Z,60.33
2019-04-10T10:14:19.656Z,57.37
2019-04-10T10:16:50.616Z,54.47
2019-04-10T10:19:19.696Z,54.03
2019-04-10T10:21:49.081Z,54.37
2019-04-10T10:24:24.811Z,56.80
2019-04-10T10:26:55.644Z,56.30
2019-04-10T10:29:25.989Z,56.27
2019-04-10T10:31:57.062Z,50.33
2019-04-10T10:34:30.299Z,52.87
2019-04-10T10:37:00.168Z,52.07
2019-04-10T10:39:37.219Z,47.73
2019-04-10T10:42:07.512Z,56.73
2019-04-10T10:44:38.270Z,52.90
2019-04-10T10:47:11.641Z,59.00
2019-04-10T10:49:40.258Z,53.57
2019-04-10T10:52:11.131Z,54.30
2019-04-10T10:54:41.094Z,53.87
2019-04-10T10:57:11.003Z,55.57
2019-04-10T11:00:04.123Z,48.90
2019-04-10T11:02:37.989Z,56.77
2019-04-10T11:05:11.232Z,50.53
2019-04-10T11:07:40.632Z,45.57
2019-04-10T11:10:12.562Z,50.07
2019-04-10T11:12:48.597Z,48.30
2019-04-10T11:15:18.373Z,51.93
2019-04-10T11:18:00.265Z,52.10
2019-04-10T11:20:33.936Z,53.90
2019-04-10T11:23:03.996Z,51.43
2019-04-10T11:25:33.463Z,49.03
2019-04-10T11:28:05.920Z,50.53
2019-04-10T11:30:36.271Z,53.40
2019-04-10T11:33:06.473Z,51.50
2019-04-10T11:35:35.546Z,56.20
2019-04-10T11:38:07.209Z,54.07
2019-04-10T11:40:36.639Z,53.60
2019-04-10T11:43:07.690Z,51.50
2019-04-10T11:45:43.547Z,50.23
2019-04-10T11:48:10.334Z,48.30
2019-04-10T11:50:46.197Z,50.23
2019-04-10T11:53:17.782Z,54.17
2019-04-10T11:55:53.623Z,56.00
2019-04-10T11:58:27.107Z,46.80
2019-04-10T12:01:02.549Z,48.80
2019-04-10T12:03:32.223Z,46.00
2019-04-10T12:06:11.470Z,41.13
2019-04-10T12:11:14.558Z,36.67
2019-04-10T12:13:49.084Z,43.73
2019-04-10T12:16:18.286Z,40.70
2019-04-10T12:18:49.319Z,39.63
2019-04-10T12:21:18.436Z,38.43
2019-04-10T12:23:50.052Z,46.93
2019-04-10T12:26:25.483Z,36.90
2019-04-10T12:28:56.187Z,33.73
2019-04-10T12:31:28.690Z,39.73
2019-04-10T12:33:57.787Z,41.27
2019-04-10T12:36:26.851Z,40.60
2019-04-10T12:39:00.561Z,39.13
2019-04-10T12:41:37.868Z,34.87
2019-04-10T12:44:07.781Z,37.90
2019-04-10T12:46:41.527Z,37.27
2019-04-10T12:49:13.038Z,41.10
2019-04-10T12:51:45.748Z,34.57
2019-04-10T12:54:19.366Z,39.00
2019-04-10T12:56:48.620Z,40.67
2019-04-10T12:59:21.478Z,43.80
2019-04-10T13:01:55.406Z,42.93
2019-04-10T13:04:25.927Z,44.20
2019-04-10T13:06:55.029Z,43.00
2019-04-10T13:09:27.504Z,45.97
2019-04-10T13:11:56.746Z,36.87
2019-04-10T13:14:26.598Z,38.37
2019-04-10T13:17:00.908Z,41.37
2019-04-10T13:19:35.648Z,40.10
2019-04-10T13:22:06.189Z,45.97
2019-04-10T13:24:38.871Z,41.27
2019-04-10T13:27:08.095Z,39.90
2019-04-10T13:29:42.610Z,45.87
2019-04-10T13:32:16.869Z,43.40
2019-04-10T13:34:46.361Z,42.83
2019-04-10T13:37:15.812Z,40.10
2019-04-10T13:39:45.355Z,36.93
2019-04-10T13:42:14.760Z,40.90
2019-04-10T13:44:43.989Z,38.57
2019-04-10T13:47:15.408Z,37.80
2019-04-10T13:49:44.685Z,34.10
2019-04-10T13:52:20.248Z,39.20
2019-04-10T13:54:52.751Z,38.20
2019-04-10T13:57:28.708Z,37.30
2019-04-10T14:00:01.742Z,34.30
2019-04-10T14:02:36.008Z,38.17
2019-04-10T14:05:08.472Z,37.90
2019-04-10T14:07:38.836Z,33.87
2019-04-10T14:10:12.995Z,36.90
2019-04-10T14:12:43.021Z,33.20
2019-04-10T14:15:24.322Z,38.20
2019-04-10T14:17:52.342Z,35.37
2019-04-10T14:20:23.653Z,36.80
2019-04-10T14:23:08.452Z,32.60
2019-04-10T14:25:45.290Z,36.03
2019-04-10T14:28:19.598Z,38.07
2019-04-10T14:30:47.329Z,35.77
2019-04-10T14:33:19.772Z,38.70
2019-04-10T14:35:49.521Z,35.53
2019-04-10T14:38:25.205Z,36.30
2019-04-10T14:40:55.543Z,36.07
2019-04-10T14:43:25.156Z,32.70
2019-04-10T14:45:55.440Z,32.50
2019-04-10T14:48:24.620Z,31.57
2019-04-10T14:50:56.218Z,37.20
2019-04-10T14:53:27.939Z,34.07
2019-04-10T14:55:58.109Z,33.67
2019-04-10T14:58:30.582Z,42.90
2019-04-10T15:01:08.393Z,38.47
2019-04-10T15:03:36.585Z,34.43
2019-04-10T15:06:06.790Z,32.70
2019-04-10T15:08:39.647Z,28.97
2019-04-10T15:11:12.687Z,35.70
2019-04-10T15:13:42.385Z,29.27
2019-04-10T15:16:14.813Z,31.40
2019-04-10T15:18:47.821Z,31.70
2019-04-10T15:21:17.045Z,42.37
2019-04-10T15:23:46.826Z,33.90
2019-04-10T15:26:16.032Z,31.50
2019-04-10T15:28:45.102Z,32.33
2019-04-10T15:31:15.149Z,32.80
2019-04-10T15:33:45.004Z,29.17
2019-04-10T15:36:22.232Z,30.50
2019-04-10T15:38:52.756Z,32.47
2019-04-10T15:41:23.908Z,32.47
2019-04-10T15:43:55.148Z,34.60
2019-04-10T15:46:24.761Z,30.50
2019-04-10T15:48:54.989Z,32.37
2019-04-10T15:51:27.930Z,36.20
2019-04-10T15:53:59.110Z,32.73
2019-04-10T15:56:28.286Z,32.73
2019-04-10T15:58:58.009Z,32.43
2019-04-10T16:01:28.938Z,33.83
2019-04-10T16:03:58.946Z,31.87
2019-04-10T16:06:29.248Z,31.27
2019-04-10T16:09:00.930Z,31.77
2019-04-10T16:11:47.995Z,35.87
2019-04-10T16:14:23.189Z,27.53
2019-04-10T16:17:02.536Z,31.00
2019-04-10T16:19:56.345Z,36.20
2019-04-10T16:22:42.649Z,30.87
2019-04-10T16:25:44.826Z,28.93
2019-04-10T16:28:15.562Z,28.80
2019-04-10T16:30:44.667Z,28.10
2019-04-10T16:33:14.728Z,40.90
2019-04-10T16:35:46.245Z,31.30
2019-04-10T16:38:16.372Z,28.47
2019-04-10T16:40:47.978Z,30.30
2019-04-10T16:43:17.159Z,34.80
2019-04-10T16:45:46.919Z,35.63
2019-04-10T16:48:16.939Z,32.57
2019-04-10T16:50:48.109Z,31.90
2019-04-10T16:53:20.053Z,30.23
2019-04-10T16:55:53.565Z,32.97
2019-04-10T16:58:23.547Z,36.70
2019-04-10T17:00:56.156Z,31.80
2019-04-10T17:03:27.628Z,33.00
2019-04-10T17:05:58.647Z,32.67
2019-04-10T17:08:27.948Z,35.73
2019-04-10T17:10:57.454Z,34.87
2019-04-10T17:13:26.776Z,33.40
2019-04-10T17:15:55.919Z,35.27
2019-04-10T17:18:26.098Z,27.10
2019-04-10T17:20:57.250Z,34.87
2019-04-10T17:23:28.864Z,31.20
2019-04-10T17:26:04.484Z,35.70
2019-04-10T17:28:34.532Z,36.30
2019-04-10T17:31:07.510Z,34.67
2019-04-10T17:33:38.399Z,34.40
2019-04-10T17:36:09.798Z,38.80
2019-04-10T17:38:39.713Z,36.00
2019-04-10T17:41:12.207Z,33.70
2019-04-10T17:43:41.520Z,35.37
2019-04-10T17:46:11.088Z,32.57
2019-04-10T17:48:44.049Z,43.33
2019-04-10T17:51:17.787Z,35.23
2019-04-10T17:53:47.427Z,36.83
2019-04-10T17:56:16.837Z,42.20
2019-04-10T17:58:46.339Z,34.17
2019-04-10T18:01:27.053Z,34.87
2019-04-10T18:03:58.979Z,34.50
2019-04-10T18:06:28.473Z,34.40
2019-04-10T18:09:05.429Z,32.67
2019-04-10T18:11:37.559Z,36.23
2019-04-10T18:14:09.446Z,34.90
2019-04-10T18:16:44.273Z,43.27
2019-04-10T18:19:15.340Z,33.60
2019-04-10T18:21:49.874Z,42.30
2019-04-10T18:24:22.729Z,41.37
2019-04-10T18:26:55.295Z,32.40
2019-04-10T18:29:28.301Z,40.13
2019-04-10T18:32:00.114Z,39.57
2019-04-10T18:34:31.495Z,31.90
2019-04-10T18:37:05.642Z,39.40
2019-04-10T18:39:43.834Z,35.47
2019-04-10T18:42:17.330Z,36.83
2019-04-10T18:44:49.392Z,37.33
2019-04-10T18:47:19.063Z,32.50
2019-04-10T18:49:48.196Z,40.70
2019-04-10T18:52:19.202Z,40.77
2019-04-10T18:54:48.165Z,39.43
2019-04-10T18:57:20.042Z,39.90
2019-04-10T19:00:15.251Z,39.80
2019-04-10T19:03:05.462Z,35.53
2019-04-10T19:05:38.375Z,44.07
2019-04-10T19:08:07.531Z,45.90
2019-04-10T19:10:36.862Z,38.50
2019-04-10T19:13:07.460Z,33.50
2019-04-10T19:15:38.720Z,34.70
2019-04-10T19:18:11.486Z,42.50
2019-04-10T19:20:40.895Z,33.37
2019-04-10T19:23:14.974Z,34.47
2019-04-10T19:25:45.543Z,38.60
2019-04-10T19:28:28.847Z,35.60
2019-04-10T19:31:07.944Z,36.80
2019-04-10T19:33:29.178Z,42.63
2019-04-10T19:35:59.415Z,39.53
2019-04-10T19:38:29.423Z,34.63
2019-04-10T19:41:00.542Z,39.30
2019-04-10T19:43:32.102Z,35.53
2019-04-10T19:46:00.698Z,32.57
2019-04-10T19:48:31.075Z,36.37
2019-04-10T19:51:00.172Z,32.27
2019-04-10T19:53:33.149Z,37.67
2019-04-10T19:56:04.790Z,32.33
2019-04-10T19:58:35.013Z,34.30
2019-04-10T20:01:05.169Z,35.33
2019-04-10T20:03:35.387Z,31.07
2019-04-10T20:06:06.336Z,33.37
2019-04-10T20:08:38.103Z,38.00
2019-04-10T20:11:07.213Z,35.30
2019-04-10T20:13:39.289Z,32.93
2019-04-10T20:16:13.087Z,33.73
2019-04-10T20:18:43.274Z,32.13
2019-04-10T20:21:12.454Z,30.13
2019-04-10T20:23:41.530Z,28.07
2019-04-10T20:26:10.736Z,35.33
2019-04-10T20:28:51.791Z,32.33
2019-04-10T20:31:26.607Z,33.27
2019-04-10T20:33:56.950Z,30.13
2019-04-10T20:36:28.991Z,30.33
2019-04-10T20:38:59.347Z,30.23
2019-04-10T20:41:28.757Z,33.83
2019-04-10T20:43:59.519Z,35.70
2019-04-10T20:46:31.632Z,36.07
2019-04-10T20:49:03.179Z,29.10
2019-04-10T20:51:32.558Z,30.17
2019-04-10T20:54:06.545Z,25.77
2019-04-10T20:56:36.820Z,29.87
2019-04-10T20:59:07.793Z,27.70
2019-04-10T21:01:37.242Z,31.07
2019-04-10T21:04:07.301Z,29.70
2019-04-10T21:06:39.460Z,33.37
2019-04-10T21:09:11.377Z,34.10
2019-04-10T21:11:58.864Z,30.10
2019-04-10T21:14:17.707Z,27.80
2019-04-10T21:16:51.967Z,28.07
2019-04-10T21:19:21.042Z,37.07
2019-04-10T21:21:51.691Z,27.30
2019-04-10T21:24:23.175Z,28.90
2019-04-10T21:26:52.767Z,24.70
2019-04-10T21:29:41.936Z,25.50
2019-04-10T21:32:34.653Z,31.30
2019-04-10T21:35:12.179Z,28.87
2019-04-10T21:37:50.750Z,21.03
2019-04-10T21:40:20.901Z,31.30
2019-04-10T21:42:50.023Z,32.13
2019-04-10T21:45:22.611Z,27.30
2019-04-10T21:47:52.306Z,33.17
2019-04-10T21:50:23.149Z,28.50
2019-04-10T21:52:53.071Z,27.30
2019-04-10T21:55:25.235Z,28.03
2019-04-10T21:57:55.393Z,24.63
2019-04-10T22:00:42.966Z,26.93
2019-04-10T22:03:13.503Z,28.40
2019-04-10T22:05:46.828Z,25.90
2019-04-10T22:08:25.870Z,23.13
2019-04-10T22:11:00.789Z,26.30
2019-04-10T22:13:32.392Z,21.63
2019-04-10T22:16:01.797Z,23.77
2019-04-10T22:18:33.713Z,21.60
2019-04-10T22:21:04.184Z,19.20
2019-04-10T22:23:34.341Z,20.70
2019-04-10T22:26:09.464Z,23.00
2019-04-10T22:28:41.331Z,18.67
2019-04-10T22:31:11.654Z,24.93
2019-04-10T22:33:42.862Z,21.87
2019-04-10T22:36:12.879Z,19.77
2019-04-10T22:38:46.202Z,24.10
2019-04-10T22:41:23.747Z,20.17
2019-04-10T22:43:46.973Z,24.73
2019-04-10T22:46:17.226Z,17.80
2019-04-10T22:48:48.592Z,21.87
2019-04-10T22:51:27.249Z,19.27
2019-04-10T22:53:58.377Z,19.97
2019-04-10T22:56:30.087Z,18.13
2019-04-10T22:59:10.146Z,21.17
2019-04-10T23:01:40.890Z,19.90
2019-04-10T23:04:12.002Z,26.00
2019-04-10T23:06:41.693Z,17.13
2019-04-10T23:09:11.960Z,17.80
2019-04-10T23:11:46.183Z,16.97
2019-04-10T23:14:14.387Z,17.23
2019-04-10T23:16:44.838Z,19.77
2019-04-10T23:19:14.147Z,16.60
2019-04-10T23:21:47.013Z,15.00
2019-04-10T23:24:17.300Z,15.37
2019-04-10T23:26:47.068Z,16.97
2019-04-10T23:29:16.188Z,16.23
2019-04-10T23:31:48.499Z,14.40
2019-04-10T23:34:18.768Z,13.53
2019-04-10T23:36:51.333Z,15.10
2019-04-10T23:39:20.443Z,17.07
2019-04-10T23:41:52.322Z,16.80
2019-04-10T23:44:20.758Z,20.43
2019-04-10T23:46:51.674Z,17.07
2019-04-10T23:49:21.528Z,16.40
2019-04-10T23:51:55.707Z,19.10
2019-04-10T23:54:27.159Z,17.77
2019-04-10T23:56:56.773Z,16.27
2019-04-10T23:59:26.712Z,13.20
